Siluria, Alabama
Current Conditions -  °F | °C
As of 4:53 PM on Monday 22 Dec 2014 (Local Time) from KEET Reporting Station
Overcast Overcast  
Wind Chill: 53°   Ceiling: 500
Heat Index: 53°   Visibility: 10mi
Dew Point: 51°   Wind: 10mph
Humidity: 93%   Direction: 120°ESE
Pressure: 29.8"   Gusts: 17mph
Location:  33.23°N, 86.82°W
Report Text: KEET 222253Z AUTO 12009G15KT 10SM OVC005 12/11 A2980 RMK AO2 RAE00B30E51 SLP090 P0002 T01170106
Loading
Personal Weather Stations






























Interactive Weather Map New forecast layout! Learn more

10-Day Weather Forecast

Advertisements
Track Severe Weather on mobile